Time;durP1;ratioP1;P1;durP2;ratioP2;P2;SDS_P1;SDS_P2;PMS_P1;PMS_P2;Temp;Humidity;BMP_temperature;BMP_pressure;BME280_temperature;BME280_humidity;BME280_pressure;Samples;Min_cycle;Max_cycle;Signal;HPM_P1;HPM_P2
2023/09/15 00:01:02;;;;;;;11.97;9.97;;;;;;;;;;5036083;28;20215;-80
2023/09/15 00:03:28;;;;;;;14.53;10.07;;;;;;;;;;5054385;28;20168;-80
2023/09/15 00:05:54;;;;;;;11.93;10.07;;;;;;;;;;5020416;28;20191;-80
2023/09/15 00:08:21;;;;;;;11.70;9.63;;;;;;;;;;5055870;28;20195;-80
2023/09/15 00:10:48;;;;;;;13.97;9.77;;;;;;;;;;5023096;28;20243;-80
2023/09/15 00:13:15;;;;;;;12.00;9.43;;;;;;;;;;5014270;28;20264;-86
2023/09/15 00:15:42;;;;;;;10.87;9.77;;;;;;;;;;5015454;28;20180;-87
2023/09/15 00:18:09;;;;;;;13.00;9.50;;;;;;;;;;5036670;28;20212;-86
2023/09/15 00:20:35;;;;;;;11.30;9.50;;;;;;;;;;5016857;28;20215;-86
2023/09/15 00:23:02;;;;;;;10.43;9.17;;;;;;;;;;5032193;28;20184;-86
2023/09/15 00:25:31;;;;;;;11.23;9.47;;;;;;;;;;5036139;28;21854;-87
2023/09/15 00:27:58;;;;;;;12.43;9.70;;;;;;;;;;5036361;28;20211;-86
2023/09/15 00:30:25;;;;;;;13.23;9.27;;;;;;;;;;5036467;28;20175;-81
2023/09/15 00:32:51;;;;;;;13.47;9.37;;;;;;;;;;5048612;28;20184;-80
2023/09/15 00:35:18;;;;;;;11.80;9.00;;;;;;;;;;5042994;28;20180;-80
2023/09/15 00:37:46;;;;;;;13.53;9.37;;;;;;;;;;5036079;28;20275;-81
2023/09/15 00:40:12;;;;;;;10.13;8.83;;;;;;;;;;5020159;28;20210;-80
2023/09/15 00:42:38;;;;;;;12.20;8.63;;;;;;;;;;5025555;28;20181;-80
2023/09/15 00:45:05;;;;;;;12.13;9.17;;;;;;;;;;5048466;28;20180;-81
2023/09/15 00:47:35;;;;;;;10.23;8.97;;;;;;;;;;5056055;28;20201;-80
2023/09/15 00:50:03;;;;;;;13.73;9.70;;;;;;;;;;5073421;28;20238;-80
2023/09/15 00:52:29;;;;;;;11.33;8.63;;;;;;;;;;5045237;28;20213;-80
2023/09/15 00:54:55;;;;;;;11.23;8.70;;;;;;;;;;5073366;28;20187;-80
2023/09/15 00:57:22;;;;;;;10.07;8.80;;;;;;;;;;5056002;28;20294;-80
2023/09/15 00:59:49;;;;;;;11.30;9.23;;;;;;;;;;5055814;28;20337;-80
2023/09/15 01:02:15;;;;;;;10.37;8.10;;;;;;;;;;5055870;28;20175;-80
2023/09/15 01:04:41;;;;;;;10.93;8.77;;;;;;;;;;5055367;28;20270;-80
2023/09/15 01:07:08;;;;;;;14.33;8.67;;;;;;;;;;5045463;28;20222;-80
2023/09/15 01:09:34;;;;;;;13.57;9.37;;;;;;;;;;5052659;28;20217;-80
2023/09/15 01:12:00;;;;;;;13.43;8.90;;;;;;;;;;5052248;28;20246;-80
2023/09/15 01:14:26;;;;;;;14.63;8.37;;;;;;;;;;5076131;28;20198;-80
2023/09/15 01:17:02;;;;;;;12.07;8.90;;;;;;;;;;5076337;28;20202;-80
2023/09/15 01:19:41;;;;;;;11.17;8.93;;;;;;;;;;5056330;28;20276;-80
2023/09/15 01:22:45;;;;;;;10.73;8.53;;;;;;;;;;5077020;28;20190;-86
2023/09/15 01:25:14;;;;;;;10.83;8.60;;;;;;;;;;5005616;28;20192;-86
2023/09/15 01:27:43;;;;;;;11.37;8.43;;;;;;;;;;4992243;28;20177;-86
2023/09/15 01:30:10;;;;;;;12.20;8.83;;;;;;;;;;5040845;28;20197;-85
2023/09/15 01:32:36;;;;;;;12.07;8.63;;;;;;;;;;5075684;28;20183;-86
2023/09/15 01:35:06;;;;;;;12.13;8.80;;;;;;;;;;5059406;28;20186;-87
2023/09/15 01:37:32;;;;;;;11.83;8.20;;;;;;;;;;5057794;28;20183;-81
2023/09/15 01:40:01;;;;;;;12.43;8.43;;;;;;;;;;5059994;28;20225;-80
2023/09/15 01:42:27;;;;;;;11.43;8.10;;;;;;;;;;5078887;28;20182;-80
2023/09/15 01:44:54;;;;;;;11.60;8.53;;;;;;;;;;5062326;28;20187;-80
2023/09/15 01:47:21;;;;;;;12.50;8.63;;;;;;;;;;5068553;28;20193;-80
2023/09/15 01:49:48;;;;;;;11.17;8.07;;;;;;;;;;5079083;28;20186;-80
2023/09/15 01:52:15;;;;;;;11.97;8.00;;;;;;;;;;5096845;28;20266;-80
2023/09/15 01:54:41;;;;;;;11.10;8.10;;;;;;;;;;5062128;28;20190;-80
2023/09/15 01:57:07;;;;;;;11.00;8.70;;;;;;;;;;5079015;28;20266;-80
2023/09/15 01:59:34;;;;;;;10.33;8.10;;;;;;;;;;5059215;28;20199;-79
2023/09/15 02:02:00;;;;;;;11.13;8.77;;;;;;;;;;5078511;28;20193;-80
2023/09/15 02:04:26;;;;;;;11.87;8.23;;;;;;;;;;5096794;28;20222;-80
2023/09/15 02:06:52;;;;;;;11.00;8.10;;;;;;;;;;5096686;28;20190;-80
2023/09/15 02:09:19;;;;;;;9.17;8.20;;;;;;;;;;5061443;28;20293;-80
2023/09/15 02:11:45;;;;;;;12.60;8.43;;;;;;;;;;5062029;28;20229;-80
2023/09/15 02:14:12;;;;;;;11.40;8.50;;;;;;;;;;5062681;28;20190;-80
2023/09/15 02:16:38;;;;;;;10.90;8.33;;;;;;;;;;5078168;28;20185;-81
2023/09/15 02:19:06;;;;;;;13.00;8.47;;;;;;;;;;5062510;28;20191;-80
2023/09/15 02:21:32;;;;;;;11.63;7.93;;;;;;;;;;5062230;28;20189;-80
2023/09/15 02:23:58;;;;;;;10.60;8.20;;;;;;;;;;5062017;28;20201;-81
2023/09/15 02:26:24;;;;;;;13.70;8.30;;;;;;;;;;5060591;28;20214;-86
2023/09/15 02:28:50;;;;;;;10.47;7.97;;;;;;;;;;5078453;28;20213;-86
2023/09/15 02:31:16;;;;;;;11.10;8.10;;;;;;;;;;5062289;28;20194;-86
2023/09/15 02:33:43;;;;;;;11.13;8.10;;;;;;;;;;5057961;28;20195;-86
2023/09/15 02:36:09;;;;;;;13.57;8.30;;;;;;;;;;5043000;28;20191;-86
2023/09/15 02:38:35;;;;;;;10.47;8.97;;;;;;;;;;5058282;28;20252;-86
2023/09/15 02:41:01;;;;;;;12.27;9.70;;;;;;;;;;5059838;28;20434;-86
2023/09/15 02:43:27;;;;;;;14.30;9.70;;;;;;;;;;5061114;28;20542;-80
2023/09/15 02:45:53;;;;;;;12.70;8.90;;;;;;;;;;5077881;28;20417;-80
2023/09/15 02:48:19;;;;;;;10.90;8.23;;;;;;;;;;5075836;28;20174;-80
2023/09/15 02:50:45;;;;;;;11.27;8.23;;;;;;;;;;5042408;28;20179;-80
2023/09/15 02:53:11;;;;;;;12.90;8.70;;;;;;;;;;5049928;28;20198;-81
2023/09/15 02:55:37;;;;;;;10.03;8.30;;;;;;;;;;5061142;28;20194;-80
2023/09/15 02:58:04;;;;;;;12.27;8.77;;;;;;;;;;5057396;28;20496;-80
2023/09/15 03:00:30;;;;;;;12.95;9.25;;;;;;;;;;5084952;28;20432;-76
2023/09/15 03:02:56;;;;;;;10.80;9.38;;;;;;;;;;5076797;28;20420;-75
2023/09/15 03:05:22;;;;;;;13.25;9.93;;;;;;;;;;5069410;28;20468;-76
2023/09/15 03:07:48;;;;;;;11.38;8.70;;;;;;;;;;5051465;28;20399;-76
2023/09/15 03:10:15;;;;;;;13.20;8.95;;;;;;;;;;5060435;28;20413;-76
2023/09/15 03:12:41;;;;;;;12.70;9.60;;;;;;;;;;5076508;28;20435;-76
2023/09/15 03:15:08;;;;;;;12.02;9.32;;;;;;;;;;5060132;28;20413;-76
2023/09/15 03:17:34;;;;;;;12.93;9.32;;;;;;;;;;5076523;28;20479;-85
2023/09/15 03:20:00;;;;;;;10.88;9.23;;;;;;;;;;5076730;28;20439;-86
2023/09/15 03:22:27;;;;;;;11.52;8.80;;;;;;;;;;5060524;28;20421;-85
2023/09/15 03:24:55;;;;;;;12.25;9.15;;;;;;;;;;5069628;28;20466;-85
2023/09/15 03:27:22;;;;;;;10.65;9.02;;;;;;;;;;5085809;28;20420;-86
2023/09/15 03:29:48;;;;;;;11.13;9.38;;;;;;;;;;5076643;28;20409;-85
2023/09/15 03:32:14;;;;;;;12.02;8.70;;;;;;;;;;5056248;28;20414;-86
2023/09/15 03:34:40;;;;;;;11.27;9.00;;;;;;;;;;5069336;28;20425;-76
2023/09/15 03:37:06;;;;;;;11.27;8.73;;;;;;;;;;5059704;28;20409;-76
2023/09/15 03:39:32;;;;;;;11.88;9.00;;;;;;;;;;5056197;28;20504;-76
2023/09/15 03:41:58;;;;;;;10.83;8.80;;;;;;;;;;5066381;28;20407;-76
2023/09/15 03:44:25;;;;;;;11.40;8.63;;;;;;;;;;5059763;28;20454;-76
2023/09/15 03:46:51;;;;;;;10.32;8.73;;;;;;;;;;5059574;28;20416;-76
2023/09/15 03:49:17;;;;;;;13.32;8.70;;;;;;;;;;5059422;28;20451;-76
2023/09/15 03:51:43;;;;;;;12.55;8.73;;;;;;;;;;5056935;28;20465;-86
2023/09/15 03:54:09;;;;;;;12.15;8.50;;;;;;;;;;5039493;28;20571;-86
2023/09/15 03:56:35;;;;;;;11.53;8.73;;;;;;;;;;5043659;28;20409;-86
2023/09/15 03:59:01;;;;;;;11.35;8.45;;;;;;;;;;5056218;28;20432;-86
2023/09/15 04:01:27;;;;;;;12.50;8.70;;;;;;;;;;5084225;28;20456;-86
2023/09/15 04:03:53;;;;;;;10.45;8.60;;;;;;;;;;5059008;28;20478;-87
2023/09/15 04:06:19;;;;;;;11.60;8.65;;;;;;;;;;5075311;28;20398;-87
2023/09/15 04:08:46;;;;;;;11.65;9.00;;;;;;;;;;5058982;28;20419;-80
2023/09/15 04:11:12;;;;;;;10.68;8.52;;;;;;;;;;5059056;28;20429;-79
2023/09/15 04:13:38;;;;;;;13.80;8.80;;;;;;;;;;5056378;28;20410;-79
2023/09/15 04:16:04;;;;;;;10.68;8.95;;;;;;;;;;5055749;28;20530;-79
2023/09/15 04:18:34;;;;;;;13.52;8.98;;;;;;;;;;5045479;28;20433;-79
2023/09/15 04:21:00;;;;;;;12.25;8.98;;;;;;;;;;5073299;28;20429;-80
2023/09/15 04:23:26;;;;;;;10.77;8.35;;;;;;;;;;5074426;28;20466;-76
2023/09/15 04:25:52;;;;;;;13.68;8.70;;;;;;;;;;5075080;28;20444;-76
2023/09/15 04:28:18;;;;;;;12.88;8.98;;;;;;;;;;5058600;28;20463;-76
2023/09/15 04:30:44;;;;;;;11.65;8.98;;;;;;;;;;5055170;28;20430;-76
2023/09/15 04:33:10;;;;;;;13.00;9.10;;;;;;;;;;5038867;28;20429;-76
2023/09/15 04:35:36;;;;;;;10.55;7.70;;;;;;;;;;5055359;28;20475;-77
2023/09/15 04:38:02;;;;;;;10.37;7.93;;;;;;;;;;5052806;28;20277;-76
2023/09/15 04:40:28;;;;;;;8.60;7.70;;;;;;;;;;5073814;28;20210;-86
2023/09/15 04:42:54;;;;;;;12.30;7.77;;;;;;;;;;5075017;28;20302;-87
2023/09/15 04:45:20;;;;;;;8.30;7.40;;;;;;;;;;5075365;28;20435;-86
2023/09/15 04:47:46;;;;;;;12.53;8.37;;;;;;;;;;5076378;28;20218;-86
2023/09/15 04:50:12;;;;;;;10.85;8.70;;;;;;;;;;5055283;28;20449;-86
2023/09/15 04:52:38;;;;;;;13.07;9.50;;;;;;;;;;5072028;28;20432;-85
2023/09/15 04:55:05;;;;;;;12.55;10.00;;;;;;;;;;5076135;28;20408;-87
2023/09/15 04:57:31;;;;;;;12.10;9.45;;;;;;;;;;5072318;28;20420;-86
2023/09/15 04:59:57;;;;;;;11.65;8.23;;;;;;;;;;5057130;28;20443;-86
2023/09/15 05:02:24;;;;;;;12.45;9.35;;;;;;;;;;5075137;28;20407;-87
2023/09/15 05:04:53;;;;;;;12.13;9.27;;;;;;;;;;5074335;28;20416;-85
2023/09/15 05:07:20;;;;;;;14.90;8.50;;;;;;;;;;5074480;28;20175;-87
2023/09/15 05:12:16;;;;;;;14.63;9.65;;;;;;;;;;5068169;28;20453;-76
2023/09/15 05:14:41;;;;;;;13.20;9.48;;;;;;;;;;5054004;28;20419;-76
2023/09/15 05:17:08;;;;;;;14.77;9.90;;;;;;;;;;5037556;28;20424;-77
2023/09/15 05:19:34;;;;;;;15.82;10.43;;;;;;;;;;5038040;28;20446;-76
2023/09/15 05:22:00;;;;;;;10.13;8.53;;;;;;;;;;5039041;28;20243;-74
2023/09/15 05:24:26;;;;;;;13.80;9.50;;;;;;;;;;5038862;28;20499;-74
2023/09/15 05:26:52;;;;;;;14.23;10.43;;;;;;;;;;5038625;28;20418;-74
2023/09/15 05:29:17;;;;;;;13.13;10.35;;;;;;;;;;5048232;28;20478;-74
2023/09/15 05:31:43;;;;;;;12.77;10.10;;;;;;;;;;5078735;28;20396;-75
2023/09/15 05:34:09;;;;;;;14.37;9.30;;;;;;;;;;5062709;28;20478;-76
2023/09/15 05:36:36;;;;;;;12.67;10.33;;;;;;;;;;5062367;28;20407;-76
2023/09/15 05:39:02;;;;;;;12.90;9.80;;;;;;;;;;5061055;28;20416;-77
2023/09/15 05:41:28;;;;;;;13.23;10.13;;;;;;;;;;5061738;28;20440;-77
2023/09/15 05:43:54;;;;;;;15.43;9.53;;;;;;;;;;5062357;28;20436;-77
2023/09/15 05:46:21;;;;;;;13.30;9.57;;;;;;;;;;5062128;28;20404;-77
2023/09/15 05:48:47;;;;;;;12.67;9.27;;;;;;;;;;5062475;28;20170;-77
2023/09/15 05:51:13;;;;;;;14.57;10.17;;;;;;;;;;5062325;28;20183;-77
2023/09/15 05:53:39;;;;;;;14.88;10.85;;;;;;;;;;5049912;28;20439;-77
2023/09/15 05:56:05;;;;;;;15.27;10.57;;;;;;;;;;5039064;28;20211;-77
2023/09/15 05:58:31;;;;;;;12.47;9.70;;;;;;;;;;5038956;28;20187;-77
2023/09/15 06:00:57;;;;;;;16.40;11.80;;;;;;;;;;5064307;28;20429;-77
2023/09/15 06:03:24;;;;;;;12.40;10.33;;;;;;;;;;5088223;28;20254;-75
2023/09/15 06:05:50;;;;;;;12.68;10.73;;;;;;;;;;5057958;28;20407;-75
2023/09/15 06:08:19;;;;;;;12.70;9.70;;;;;;;;;;5041275;28;20228;-75
2023/09/15 06:10:45;;;;;;;12.30;9.43;;;;;;;;;;5058051;28;20231;-75
2023/09/15 06:13:11;;;;;;;15.07;9.83;;;;;;;;;;5076374;28;20178;-76
2023/09/15 06:15:37;;;;;;;15.82;11.25;;;;;;;;;;5057548;28;20402;-75
2023/09/15 06:18:04;;;;;;;12.63;10.63;;;;;;;;;;5041913;28;20215;-75
2023/09/15 06:20:31;;;;;;;14.40;11.37;;;;;;;;;;5041242;28;20534;-78
2023/09/15 06:22:57;;;;;;;13.45;11.55;;;;;;;;;;5057781;28;20410;-78
2023/09/15 06:25:23;;;;;;;14.15;11.00;;;;;;;;;;5057697;28;20433;-78
2023/09/15 06:27:49;;;;;;;14.03;11.17;;;;;;;;;;5075038;28;20469;-78
2023/09/15 06:30:16;;;;;;;14.23;11.40;;;;;;;;;;5075196;28;20406;-78
2023/09/15 06:32:42;;;;;;;14.75;11.32;;;;;;;;;;5074295;28;20410;-78
2023/09/15 06:35:12;;;;;;;13.60;11.30;;;;;;;;;;5049784;28;20420;-78
2023/09/15 06:37:38;;;;;;;15.45;11.38;;;;;;;;;;5061761;28;20416;-78
2023/09/15 06:40:06;;;;;;;13.65;9.77;;;;;;;;;;5077219;28;20579;-78
2023/09/15 06:42:32;;;;;;;15.97;10.30;;;;;;;;;;5071844;28;20233;-78
2023/09/15 06:44:58;;;;;;;12.60;9.70;;;;;;;;;;5055644;28;20405;-78
2023/09/15 06:47:24;;;;;;;15.10;10.17;;;;;;;;;;5053302;28;20418;-78
2023/09/15 06:49:50;;;;;;;13.85;11.13;;;;;;;;;;5037288;28;20442;-78
2023/09/15 06:52:16;;;;;;;15.00;11.07;;;;;;;;;;5054385;28;20418;-77
2023/09/15 06:54:42;;;;;;;14.50;11.57;;;;;;;;;;5072582;28;20554;-78
2023/09/15 06:57:08;;;;;;;13.07;11.20;;;;;;;;;;5074501;28;20411;-78
2023/09/15 06:59:34;;;;;;;12.75;10.75;;;;;;;;;;5040815;28;20484;-78
2023/09/15 07:02:02;;;;;;;13.55;11.35;;;;;;;;;;5074097;28;20414;-79
2023/09/15 07:04:28;;;;;;;13.23;11.13;;;;;;;;;;5059877;28;20432;-78
2023/09/15 07:06:54;;;;;;;12.85;10.98;;;;;;;;;;5057252;28;20417;-78
2023/09/15 07:09:22;;;;;;;14.20;10.55;;;;;;;;;;5040297;28;20428;-78
2023/09/15 07:11:48;;;;;;;12.00;10.10;;;;;;;;;;5052874;28;20500;-76
2023/09/15 07:14:14;;;;;;;13.40;10.38;;;;;;;;;;5052694;28;20410;-76
2023/09/15 07:16:41;;;;;;;12.47;10.40;;;;;;;;;;5040198;28;20411;-76
2023/09/15 07:19:07;;;;;;;12.77;10.40;;;;;;;;;;5057061;28;20399;-76
2023/09/15 07:21:33;;;;;;;13.32;9.82;;;;;;;;;;5057200;28;20409;-76
2023/09/15 07:23:59;;;;;;;10.50;9.05;;;;;;;;;;5040729;28;20414;-76
2023/09/15 07:26:26;;;;;;;13.80;10.47;;;;;;;;;;5056927;28;20556;-77
2023/09/15 07:28:53;;;;;;;11.63;9.50;;;;;;;;;;5057310;28;20183;-78
2023/09/15 07:31:20;;;;;;;13.55;9.73;;;;;;;;;;5039533;28;20428;-78
2023/09/15 07:33:46;;;;;;;12.23;9.50;;;;;;;;;;5055741;28;20414;-78
2023/09/15 07:36:12;;;;;;;11.80;8.00;;;;;;;;;;5074560;28;20194;-78
2023/09/15 07:38:38;;;;;;;11.63;8.82;;;;;;;;;;5039544;28;20509;-78
2023/09/15 07:41:04;;;;;;;12.38;8.63;;;;;;;;;;5052941;28;20474;-78
2023/09/15 07:43:31;;;;;;;15.13;9.32;;;;;;;;;;5056260;28;20411;-78
2023/09/15 07:45:57;;;;;;;11.27;8.17;;;;;;;;;;5036777;28;20188;-78
2023/09/15 07:48:23;;;;;;;12.50;8.00;;;;;;;;;;5037440;28;20235;-78
2023/09/15 07:50:50;;;;;;;12.38;8.52;;;;;;;;;;5037144;28;20439;-78
2023/09/15 07:53:16;;;;;;;13.15;8.90;;;;;;;;;;5036374;28;20412;-78
2023/09/15 07:55:42;;;;;;;14.40;8.88;;;;;;;;;;5036245;28;20400;-78
2023/09/15 07:58:08;;;;;;;12.52;8.60;;;;;;;;;;5053879;28;20400;-78
2023/09/15 08:00:34;;;;;;;12.25;8.27;;;;;;;;;;5037526;28;20436;-78
2023/09/15 08:03:00;;;;;;;12.13;8.57;;;;;;;;;;5054665;28;20417;-78
2023/09/15 08:05:26;;;;;;;13.27;8.70;;;;;;;;;;5019910;28;20467;-78
2023/09/15 08:07:52;;;;;;;12.07;8.20;;;;;;;;;;5037935;28;20404;-78
2023/09/15 08:10:19;;;;;;;12.47;7.97;;;;;;;;;;5040193;28;20184;-79
2023/09/15 08:12:45;;;;;;;13.43;7.80;;;;;;;;;;5040433;28;20201;-78
2023/09/15 08:15:14;;;;;;;12.57;7.90;;;;;;;;;;5054517;28;20437;-79
2023/09/15 08:17:40;;;;;;;11.87;7.37;;;;;;;;;;5056885;28;20184;-76
2023/09/15 08:20:06;;;;;;;10.60;8.20;;;;;;;;;;5055467;28;20445;-76
2023/09/15 08:22:34;;;;;;;12.97;8.23;;;;;;;;;;5072420;28;20402;-76
2023/09/15 08:25:01;;;;;;;13.02;8.10;;;;;;;;;;5037933;28;20426;-76
2023/09/15 08:27:27;;;;;;;14.23;7.67;;;;;;;;;;5055847;28;20255;-77
2023/09/15 08:29:53;;;;;;;11.07;7.70;;;;;;;;;;5055301;28;20409;-77
2023/09/15 08:32:20;;;;;;;12.30;7.33;;;;;;;;;;5055723;28;20187;-76
2023/09/15 08:34:46;;;;;;;13.17;7.83;;;;;;;;;;5056095;28;20191;-78
2023/09/15 08:37:12;;;;;;;11.50;7.00;;;;;;;;;;5039367;28;20194;-79
2023/09/15 08:39:39;;;;;;;12.27;7.82;;;;;;;;;;5055196;28;20445;-78
2023/09/15 08:42:07;;;;;;;11.70;7.13;;;;;;;;;;5037880;28;20187;-78
2023/09/15 08:44:33;;;;;;;11.70;7.13;;;;;;;;;;5055239;28;20187;-79
2023/09/15 08:47:04;;;;;;;9.00;6.63;;;;;;;;;;5055305;28;20180;-78
2023/09/15 08:49:30;;;;;;;10.40;7.45;;;;;;;;;;5054530;28;20421;-78
2023/09/15 08:51:57;;;;;;;12.90;7.20;;;;;;;;;;5054821;28;20472;-76
2023/09/15 08:54:23;;;;;;;7.93;5.97;;;;;;;;;;5054647;28;20183;-76
2023/09/15 08:56:49;;;;;;;9.80;6.47;;;;;;;;;;5056222;28;20241;-76
2023/09/15 08:59:16;;;;;;;8.50;5.87;;;;;;;;;;5042421;28;20227;-76
2023/09/15 09:01:42;;;;;;;9.67;5.90;;;;;;;;;;5064195;28;20196;-77
2023/09/15 09:04:10;;;;;;;8.67;6.23;;;;;;;;;;5041545;28;20183;-76
2023/09/15 09:06:37;;;;;;;10.53;5.50;;;;;;;;;;5039894;28;20188;-77
2023/09/15 09:09:04;;;;;;;10.23;5.90;;;;;;;;;;5075870;28;20175;-77
2023/09/15 09:11:30;;;;;;;10.13;5.23;;;;;;;;;;5053602;28;20231;-77
2023/09/15 09:13:56;;;;;;;8.13;5.30;;;;;;;;;;5073302;28;20262;-77
2023/09/15 09:16:22;;;;;;;9.87;5.70;;;;;;;;;;5055697;28;20179;-77
2023/09/15 09:18:59;;;;;;;7.03;5.20;;;;;;;;;;5055582;28;20182;-77
2023/09/15 09:21:28;;;;;;;6.80;5.33;;;;;;;;;;5073229;28;20203;-77
2023/09/15 09:23:55;;;;;;;7.13;5.90;;;;;;;;;;5055733;28;20249;-80
2023/09/15 09:26:21;;;;;;;8.17;5.33;;;;;;;;;;5077997;28;20172;-80
2023/09/15 09:28:47;;;;;;;7.20;5.60;;;;;;;;;;5059475;28;20182;-80
2023/09/15 09:31:14;;;;;;;8.57;5.80;;;;;;;;;;5043465;28;20180;-80
2023/09/15 09:33:40;;;;;;;7.90;5.53;;;;;;;;;;5058743;28;20249;-80
2023/09/15 09:36:11;;;;;;;9.23;5.68;;;;;;;;;;5076085;28;20167;-80
2023/09/15 09:38:37;;;;;;;9.95;6.15;;;;;;;;;;5058287;28;20259;-80
2023/09/15 09:41:06;;;;;;;7.47;4.82;;;;;;;;;;5039683;28;20210;-76
2023/09/15 09:43:36;;;;;;;8.93;5.53;;;;;;;;;;5073141;28;20183;-76
2023/09/15 09:46:03;;;;;;;10.65;5.20;;;;;;;;;;5073163;28;20254;-76
2023/09/15 09:48:29;;;;;;;7.40;5.55;;;;;;;;;;5055276;28;20175;-76
2023/09/15 09:50:56;;;;;;;7.85;5.35;;;;;;;;;;5038611;28;20186;-76
2023/09/15 09:53:28;;;;;;;7.60;5.25;;;;;;;;;;5055380;28;20176;-76
2023/09/15 09:55:55;;;;;;;7.55;4.90;;;;;;;;;;5073084;28;20168;-76
2023/09/15 09:58:24;;;;;;;7.35;5.50;;;;;;;;;;5057426;28;20179;-80
2023/09/15 10:00:50;;;;;;;6.97;5.20;;;;;;;;;;5042320;28;20302;-80
2023/09/15 10:03:17;;;;;;;8.50;5.47;;;;;;;;;;5060703;28;20178;-80
2023/09/15 10:05:43;;;;;;;6.75;4.90;;;;;;;;;;5077334;28;20406;-80
2023/09/15 10:08:10;;;;;;;8.20;5.28;;;;;;;;;;5059833;28;20461;-80
2023/09/15 10:10:40;;;;;;;10.48;5.07;;;;;;;;;;5056293;28;20472;-82
2023/09/15 10:13:07;;;;;;;8.32;5.15;;;;;;;;;;5079321;28;20428;-78
2023/09/15 10:15:34;;;;;;;8.70;4.63;;;;;;;;;;5039057;28;20214;-77
2023/09/15 10:18:01;;;;;;;6.53;5.00;;;;;;;;;;5061129;28;20241;-77
2023/09/15 10:20:27;;;;;;;6.68;4.60;;;;;;;;;;5057176;28;20253;-77
2023/09/15 10:22:54;;;;;;;7.68;4.70;;;;;;;;;;5041159;28;20484;-77
2023/09/15 10:25:23;;;;;;;7.40;5.05;;;;;;;;;;5041855;28;20186;-77
2023/09/15 10:27:49;;;;;;;5.97;4.50;;;;;;;;;;5058167;28;20187;-77
2023/09/15 10:30:15;;;;;;;7.10;4.88;;;;;;;;;;5058350;28;20179;-77
2023/09/15 10:32:43;;;;;;;9.68;4.40;;;;;;;;;;5044600;28;20230;-76
2023/09/15 10:35:10;;;;;;;5.88;4.47;;;;;;;;;;5038775;28;20191;-77
2023/09/15 10:37:43;;;;;;;5.38;4.20;;;;;;;;;;5045131;28;20266;-76
2023/09/15 10:40:10;;;;;;;9.02;4.75;;;;;;;;;;5041406;28;20218;-77
2023/09/15 10:42:47;;;;;;;6.65;4.72;;;;;;;;;;5058380;28;20180;-78
2023/09/15 10:45:13;;;;;;;6.68;4.38;;;;;;;;;;5076082;28;20250;-78
2023/09/15 10:47:39;;;;;;;5.85;4.03;;;;;;;;;;5041894;28;20203;-78
2023/09/15 10:50:07;;;;;;;6.40;4.43;;;;;;;;;;5042039;28;20191;-78
2023/09/15 10:52:33;;;;;;;5.80;5.03;;;;;;;;;;5058463;28;20184;-78
2023/09/15 10:54:59;;;;;;;7.97;4.97;;;;;;;;;;5058135;28;20186;-78
2023/09/15 10:57:26;;;;;;;7.35;4.43;;;;;;;;;;5037973;28;20184;-77
2023/09/15 10:59:53;;;;;;;10.20;5.03;;;;;;;;;;5040795;28;20212;-77
2023/09/15 11:02:20;;;;;;;9.38;5.40;;;;;;;;;;5054343;28;20183;-77
2023/09/15 11:04:47;;;;;;;9.43;4.85;;;;;;;;;;5055454;28;20187;-79
2023/09/15 11:07:16;;;;;;;5.35;4.82;;;;;;;;;;5037574;28;20179;-78
2023/09/15 11:12:13;;;;;;;8.30;4.82;;;;;;;;;;5070657;28;20295;-76
2023/09/15 11:14:40;;;;;;;9.73;5.28;;;;;;;;;;5036913;28;20198;-77
2023/09/15 11:17:06;;;;;;;5.75;4.68;;;;;;;;;;5040205;28;20235;-77
2023/09/15 11:19:34;;;;;;;11.45;5.15;;;;;;;;;;5073184;28;20215;-76
2023/09/15 11:22:04;;;;;;;7.03;5.40;;;;;;;;;;5055091;28;20171;-77
2023/09/15 11:24:31;;;;;;;8.10;4.90;;;;;;;;;;5038487;28;20510;-78
2023/09/15 11:26:58;;;;;;;7.55;5.07;;;;;;;;;;5038874;28;20281;-77
2023/09/15 11:29:33;;;;;;;7.82;5.00;;;;;;;;;;5038700;28;20192;-77
2023/09/15 11:32:01;;;;;;;6.03;4.78;;;;;;;;;;5051673;28;20175;-77
2023/09/15 11:34:27;;;;;;;5.68;4.65;;;;;;;;;;5039184;28;20184;-77
2023/09/15 11:36:57;;;;;;;7.72;5.00;;;;;;;;;;5054606;28;20236;-76
2023/09/15 11:39:23;;;;;;;7.00;5.05;;;;;;;;;;5053932;28;20171;-76
2023/09/15 11:41:58;;;;;;;9.13;4.53;;;;;;;;;;5037537;28;20183;-77
2023/09/15 11:44:29;;;;;;;5.30;4.13;;;;;;;;;;5038464;28;20203;-77
2023/09/15 11:46:56;;;;;;;21.27;6.47;;;;;;;;;;5040961;28;20461;-76
2023/09/15 11:49:23;;;;;;;17.05;5.45;;;;;;;;;;5040348;28;20218;-76
2023/09/15 11:51:50;;;;;;;7.78;5.05;;;;;;;;;;5074613;28;20168;-76
2023/09/15 11:54:16;;;;;;;6.68;5.00;;;;;;;;;;5056922;28;20182;-80
2023/09/15 11:56:48;;;;;;;6.30;5.00;;;;;;;;;;5032326;28;20179;-79
2023/09/15 11:59:15;;;;;;;9.10;5.03;;;;;;;;;;5020791;28;20176;-80
2023/09/15 12:01:41;;;;;;;7.95;5.10;;;;;;;;;;5020081;28;20446;-80
2023/09/15 12:04:08;;;;;;;7.90;5.03;;;;;;;;;;5051043;28;20171;-79
2023/09/15 12:06:35;;;;;;;6.95;4.82;;;;;;;;;;5040026;28;20203;-79
2023/09/15 12:09:02;;;;;;;6.03;4.68;;;;;;;;;;5074484;28;20198;-79
2023/09/15 12:11:29;;;;;;;7.22;5.15;;;;;;;;;;5073866;28;20223;-79
2023/09/15 12:13:56;;;;;;;7.90;4.72;;;;;;;;;;5056326;28;20274;-79
2023/09/15 12:16:27;;;;;;;8.40;4.75;;;;;;;;;;5040062;28;20277;-78
2023/09/15 12:18:53;;;;;;;8.02;5.60;;;;;;;;;;5054042;28;20167;-78
2023/09/15 12:21:26;;;;;;;6.63;4.70;;;;;;;;;;5049413;28;20296;-78
2023/09/15 12:23:54;;;;;;;7.65;5.00;;;;;;;;;;5039138;28;20183;-78
2023/09/15 12:26:21;;;;;;;6.18;4.38;;;;;;;;;;5074089;28;20163;-78
2023/09/15 12:28:47;;;;;;;5.40;4.78;;;;;;;;;;5055166;28;20175;-77
2023/09/15 12:31:22;;;;;;;6.65;4.63;;;;;;;;;;5054798;28;20186;-75
2023/09/15 12:33:52;;;;;;;7.55;4.00;;;;;;;;;;5073589;28;20174;-75
2023/09/15 12:36:19;;;;;;;5.88;3.55;;;;;;;;;;5056026;28;20229;-76
2023/09/15 12:38:45;;;;;;;4.70;3.60;;;;;;;;;;5055779;28;20179;-75
2023/09/15 12:41:13;;;;;;;5.75;4.82;;;;;;;;;;5055666;28;20209;-76
2023/09/15 12:43:39;;;;;;;7.47;4.75;;;;;;;;;;5054909;28;20270;-75
2023/09/15 12:46:05;;;;;;;7.70;4.80;;;;;;;;;;5055998;28;20207;-75
2023/09/15 12:48:32;;;;;;;6.72;3.92;;;;;;;;;;5039475;28;20187;-76
2023/09/15 12:50:58;;;;;;;6.07;3.90;;;;;;;;;;5055390;28;20481;-75
2023/09/15 12:53:25;;;;;;;5.75;4.28;;;;;;;;;;5055222;28;20477;-75
2023/09/15 12:55:53;;;;;;;6.13;3.90;;;;;;;;;;5039470;28;20179;-75
2023/09/15 12:58:19;;;;;;;9.25;4.00;;;;;;;;;;5055948;28;20180;-75
2023/09/15 13:00:45;;;;;;;7.43;4.22;;;;;;;;;;5039312;28;20218;-77
2023/09/15 13:03:11;;;;;;;7.07;4.18;;;;;;;;;;5055866;28;20175;-77
2023/09/15 13:05:37;;;;;;;6.65;4.40;;;;;;;;;;5039249;28;20197;-77
2023/09/15 13:08:03;;;;;;;8.13;4.43;;;;;;;;;;5073426;28;20258;-77
2023/09/15 13:10:30;;;;;;;7.63;4.80;;;;;;;;;;5039145;28;20223;-77
2023/09/15 13:12:56;;;;;;;7.97;4.93;;;;;;;;;;5055700;28;20187;-77
2023/09/15 13:15:22;;;;;;;7.25;4.55;;;;;;;;;;5039113;28;20179;-77
2023/09/15 13:17:49;;;;;;;9.43;5.40;;;;;;;;;;5055528;28;20191;-75
2023/09/15 13:20:15;;;;;;;8.20;4.88;;;;;;;;;;5055970;28;20210;-76
2023/09/15 13:22:41;;;;;;;7.03;5.00;;;;;;;;;;5039166;28;20176;-76
2023/09/15 13:25:08;;;;;;;6.63;4.57;;;;;;;;;;5055460;28;20175;-76
2023/09/15 13:27:42;;;;;;;6.47;4.80;;;;;;;;;;5073286;28;20206;-76
2023/09/15 13:30:09;;;;;;;8.00;4.47;;;;;;;;;;5073462;28;20163;-76
2023/09/15 13:32:35;;;;;;;8.32;4.65;;;;;;;;;;5050490;28;20186;-76
2023/09/15 13:35:01;;;;;;;7.70;5.68;;;;;;;;;;5055863;28;20179;-75
2023/09/15 13:37:27;;;;;;;9.48;5.70;;;;;;;;;;5043002;28;20180;-75
2023/09/15 13:39:53;;;;;;;8.43;5.22;;;;;;;;;;5042540;28;20261;-75
2023/09/15 13:42:29;;;;;;;8.33;5.30;;;;;;;;;;5041725;28;20402;-75
2023/09/15 13:44:55;;;;;;;10.18;5.70;;;;;;;;;;5058747;28;20409;-74
2023/09/15 13:47:21;;;;;;;8.13;5.43;;;;;;;;;;5076848;28;20195;-74
2023/09/15 13:49:47;;;;;;;8.05;5.25;;;;;;;;;;5042368;28;20176;-75
2023/09/15 13:52:13;;;;;;;8.30;4.70;;;;;;;;;;5042698;28;20241;-75
2023/09/15 13:54:39;;;;;;;10.35;5.90;;;;;;;;;;5042268;28;20180;-76
2023/09/15 13:57:05;;;;;;;8.60;6.32;;;;;;;;;;5042392;28;20183;-75
2023/09/15 13:59:31;;;;;;;8.18;5.55;;;;;;;;;;5058756;28;20175;-75
2023/09/15 14:01:57;;;;;;;8.63;5.70;;;;;;;;;;5042472;28;20226;-75
2023/09/15 14:04:23;;;;;;;8.25;5.68;;;;;;;;;;5058819;28;20186;-75
2023/09/15 14:06:49;;;;;;;8.25;5.00;;;;;;;;;;5042620;28;20179;-75
2023/09/15 14:09:16;;;;;;;9.05;5.60;;;;;;;;;;5058585;28;20179;-75
2023/09/15 14:11:42;;;;;;;7.28;5.47;;;;;;;;;;5058551;28;20223;-76
2023/09/15 14:14:11;;;;;;;7.32;5.88;;;;;;;;;;5042082;28;20234;-76
2023/09/15 14:16:38;;;;;;;7.20;5.50;;;;;;;;;;5058704;28;20199;-76
2023/09/15 14:19:04;;;;;;;7.28;5.30;;;;;;;;;;5076077;28;20239;-76
2023/09/15 14:21:31;;;;;;;9.35;5.00;;;;;;;;;;5055177;28;20235;-77
2023/09/15 14:23:57;;;;;;;8.35;5.38;;;;;;;;;;5055333;28;20175;-78
2023/09/15 14:26:23;;;;;;;9.23;4.93;;;;;;;;;;5040645;28;20187;-78
2023/09/15 14:28:49;;;;;;;7.35;5.30;;;;;;;;;;5038304;28;20188;-78
2023/09/15 14:31:15;;;;;;;9.20;5.00;;;;;;;;;;5028079;28;20191;-80
2023/09/15 14:33:41;;;;;;;6.80;4.93;;;;;;;;;;5044988;28;20203;-79
2023/09/15 14:36:07;;;;;;;11.00;5.30;;;;;;;;;;5075703;28;20178;-80